sensor_id;sensor_type;location;lat;lon;timestamp;temperature;humidity
8565;DHT22;4320;51.498;6.556;2022-08-03T00:01:41;23.40;1.00
8565;DHT22;4320;51.498;6.556;2022-08-03T00:04:08;23.40;1.00
8565;DHT22;4320;51.498;6.556;2022-08-03T00:06:34;23.40;1.00
8565;DHT22;4320;51.498;6.556;2022-08-03T00:09:00;23.40;1.00
8565;DHT22;4320;51.498;6.556;2022-08-03T00:11:26;23.50;1.00
8565;DHT22;4320;51.498;6.556;2022-08-03T00:13:52;23.40;1.00
8565;DHT22;4320;51.498;6.556;2022-08-03T00:16:18;23.50;1.00
8565;DHT22;4320;51.498;6.556;2022-08-03T00:18:43;23.50;1.00
8565;DHT22;4320;51.498;6.556;2022-08-03T00:21:10;23.40;1.00
8565;DHT22;4320;51.498;6.556;2022-08-03T00:23:35;23.30;1.00
8565;DHT22;4320;51.498;6.556;2022-08-03T00:26:02;23.20;1.00
8565;DHT22;4320;51.498;6.556;2022-08-03T00:28:27;23.20;1.00
8565;DHT22;4320;51.498;6.556;2022-08-03T00:30:53;23.20;1.00
8565;DHT22;4320;51.498;6.556;2022-08-03T00:33:20;23.20;1.00
8565;DHT22;4320;51.498;6.556;2022-08-03T00:35:46;23.10;1.00
8565;DHT22;4320;51.498;6.556;2022-08-03T00:38:12;23.10;1.00
8565;DHT22;4320;51.498;6.556;2022-08-03T00:40:37;23.00;1.00
8565;DHT22;4320;51.498;6.556;2022-08-03T00:43:04;23.00;1.00
8565;DHT22;4320;51.498;6.556;2022-08-03T00:45:36;23.00;1.00
8565;DHT22;4320;51.498;6.556;2022-08-03T00:48:04;23.00;1.00
8565;DHT22;4320;51.498;6.556;2022-08-03T00:50:32;22.90;1.00
8565;DHT22;4320;51.498;6.556;2022-08-03T00:53:00;22.90;1.00
8565;DHT22;4320;51.498;6.556;2022-08-03T00:55:27;23.00;1.00
8565;DHT22;4320;51.498;6.556;2022-08-03T00:57:53;23.00;1.00
8565;DHT22;4320;51.498;6.556;2022-08-03T01:00:21;22.90;1.00
8565;DHT22;4320;51.498;6.556;2022-08-03T01:02:47;23.00;1.00
8565;DHT22;4320;51.498;6.556;2022-08-03T01:05:13;22.90;1.00
8565;DHT22;4320;51.498;6.556;2022-08-03T01:08:05;22.80;1.00
8565;DHT22;4320;51.498;6.556;2022-08-03T01:16:07;22.80;1.00
8565;DHT22;4320;51.498;6.556;2022-08-03T01:18:40;22.80;1.00
8565;DHT22;4320;51.498;6.556;2022-08-03T01:21:15;22.80;1.00
8565;DHT22;4320;51.498;6.556;2022-08-03T01:23:59;22.70;1.00
8565;DHT22;4320;51.498;6.556;2022-08-03T01:32:12;22.70;1.00
8565;DHT22;4320;51.498;6.556;2022-08-03T01:34:49;22.70;1.00
8565;DHT22;4320;51.498;6.556;2022-08-03T01:37:30;22.70;1.00
8565;DHT22;4320;51.498;6.556;2022-08-03T01:39:57;22.60;1.00
8565;DHT22;4320;51.498;6.556;2022-08-03T01:42:26;22.50;1.00
8565;DHT22;4320;51.498;6.556;2022-08-03T01:44:54;22.50;1.00
8565;DHT22;4320;51.498;6.556;2022-08-03T01:47:21;22.50;1.00
8565;DHT22;4320;51.498;6.556;2022-08-03T01:49:49;22.50;1.00
8565;DHT22;4320;51.498;6.556;2022-08-03T01:52:18;22.60;1.00
8565;DHT22;4320;51.498;6.556;2022-08-03T01:54:47;22.50;1.00
8565;DHT22;4320;51.498;6.556;2022-08-03T01:57:14;22.50;1.00
8565;DHT22;4320;51.498;6.556;2022-08-03T01:59:41;22.50;1.00
8565;DHT22;4320;51.498;6.556;2022-08-03T02:02:12;22.50;1.00
8565;DHT22;4320;51.498;6.556;2022-08-03T02:04:40;22.40;1.00
8565;DHT22;4320;51.498;6.556;2022-08-03T02:07:07;22.40;1.00
8565;DHT22;4320;51.498;6.556;2022-08-03T02:09:37;22.30;1.00
8565;DHT22;4320;51.498;6.556;2022-08-03T02:12:07;22.20;1.00
8565;DHT22;4320;51.498;6.556;2022-08-03T02:14:34;22.20;1.00
8565;DHT22;4320;51.498;6.556;2022-08-03T02:17:00;22.20;1.00
8565;DHT22;4320;51.498;6.556;2022-08-03T02:19:26;22.20;1.00
8565;DHT22;4320;51.498;6.556;2022-08-03T02:21:53;22.20;1.00
8565;DHT22;4320;51.498;6.556;2022-08-03T02:24:19;22.20;1.00
8565;DHT22;4320;51.498;6.556;2022-08-03T02:26:44;22.10;1.00
8565;DHT22;4320;51.498;6.556;2022-08-03T02:29:15;21.80;1.00
8565;DHT22;4320;51.498;6.556;2022-08-03T02:31:43;21.80;1.00
8565;DHT22;4320;51.498;6.556;2022-08-03T02:34:13;21.70;1.00
8565;DHT22;4320;51.498;6.556;2022-08-03T02:36:41;21.60;1.00
8565;DHT22;4320;51.498;6.556;2022-08-03T02:39:10;21.60;1.00
8565;DHT22;4320;51.498;6.556;2022-08-03T02:41:44;21.50;1.00
8565;DHT22;4320;51.498;6.556;2022-08-03T02:44:11;21.60;1.00
8565;DHT22;4320;51.498;6.556;2022-08-03T02:46:40;21.60;1.00
8565;DHT22;4320;51.498;6.556;2022-08-03T02:49:06;21.60;1.00
8565;DHT22;4320;51.498;6.556;2022-08-03T02:51:35;21.60;1.00
8565;DHT22;4320;51.498;6.556;2022-08-03T02:54:02;21.60;1.00
8565;DHT22;4320;51.498;6.556;2022-08-03T02:56:29;21.60;1.00
8565;DHT22;4320;51.498;6.556;2022-08-03T02:58:57;21.60;1.00
8565;DHT22;4320;51.498;6.556;2022-08-03T03:01:25;21.50;1.00
8565;DHT22;4320;51.498;6.556;2022-08-03T03:03:53;21.50;5.50
8565;DHT22;4320;51.498;6.556;2022-08-03T03:06:20;21.40;5.60
8565;DHT22;4320;51.498;6.556;2022-08-03T03:08:46;21.40;5.50
8565;DHT22;4320;51.498;6.556;2022-08-03T03:11:14;21.30;5.40
8565;DHT22;4320;51.498;6.556;2022-08-03T03:13:42;21.30;7.90
8565;DHT22;4320;51.498;6.556;2022-08-03T03:16:11;21.20;14.10
8565;DHT22;4320;51.498;6.556;2022-08-03T03:18:38;21.30;14.80
8565;DHT22;4320;51.498;6.556;2022-08-03T03:21:06;21.20;21.10
8565;DHT22;4320;51.498;6.556;2022-08-03T03:23:35;21.30;19.40
8565;DHT22;4320;51.498;6.556;2022-08-03T03:26:01;21.30;21.20
8565;DHT22;4320;51.498;6.556;2022-08-03T03:28:27;21.30;20.70
8565;DHT22;4320;51.498;6.556;2022-08-03T03:30:53;21.20;21.90
8565;DHT22;4320;51.498;6.556;2022-08-03T03:33:20;21.20;24.20
8565;DHT22;4320;51.498;6.556;2022-08-03T03:35:46;21.20;25.60
8565;DHT22;4320;51.498;6.556;2022-08-03T03:38:12;21.30;25.30
8565;DHT22;4320;51.498;6.556;2022-08-03T03:40:38;21.40;25.40
8565;DHT22;4320;51.498;6.556;2022-08-03T03:43:08;21.40;23.30
8565;DHT22;4320;51.498;6.556;2022-08-03T03:45:34;21.30;21.70
8565;DHT22;4320;51.498;6.556;2022-08-03T03:48:04;21.20;22.30
8565;DHT22;4320;51.498;6.556;2022-08-03T03:50:33;21.10;25.60
8565;DHT22;4320;51.498;6.556;2022-08-03T03:53:00;21.00;27.00
8565;DHT22;4320;51.498;6.556;2022-08-03T03:55:26;21.00;29.00
8565;DHT22;4320;51.498;6.556;2022-08-03T03:57:54;21.00;29.70
8565;DHT22;4320;51.498;6.556;2022-08-03T04:00:20;21.00;31.40
8565;DHT22;4320;51.498;6.556;2022-08-03T04:02:45;20.90;32.40
8565;DHT22;4320;51.498;6.556;2022-08-03T04:05:12;20.90;34.20
8565;DHT22;4320;51.498;6.556;2022-08-03T04:08:16;21.10;34.30
8565;DHT22;4320;51.498;6.556;2022-08-03T04:16:17;21.40;26.50
8565;DHT22;4320;51.498;6.556;2022-08-03T04:18:45;21.40;25.30
8565;DHT22;4320;51.498;6.556;2022-08-03T04:21:14;21.40;23.80
8565;DHT22;4320;51.498;6.556;2022-08-03T04:23:45;21.40;22.80
8565;DHT22;4320;51.498;6.556;2022-08-03T04:26:12;21.40;22.20
8565;DHT22;4320;51.498;6.556;2022-08-03T04:28:40;21.30;22.20
8565;DHT22;4320;51.498;6.556;2022-08-03T04:31:07;21.40;22.40
8565;DHT22;4320;51.498;6.556;2022-08-03T04:33:36;21.40;21.00
8565;DHT22;4320;51.498;6.556;2022-08-03T04:36:05;21.40;20.00
8565;DHT22;4320;51.498;6.556;2022-08-03T04:39:02;21.40;20.30
8565;DHT22;4320;51.498;6.556;2022-08-03T04:41:22;21.40;19.40
8565;DHT22;4320;51.498;6.556;2022-08-03T04:43:50;21.50;18.30
8565;DHT22;4320;51.498;6.556;2022-08-03T04:46:19;21.50;17.00
8565;DHT22;4320;51.498;6.556;2022-08-03T04:48:47;21.60;15.20
8565;DHT22;4320;51.498;6.556;2022-08-03T04:51:13;21.60;14.70
8565;DHT22;4320;51.498;6.556;2022-08-03T04:53:39;21.70;13.10
8565;DHT22;4320;51.498;6.556;2022-08-03T04:56:05;21.80;9.70
8565;DHT22;4320;51.498;6.556;2022-08-03T04:58:31;21.80;5.90
8565;DHT22;4320;51.498;6.556;2022-08-03T05:00:57;21.90;5.80
8565;DHT22;4320;51.498;6.556;2022-08-03T05:03:23;21.90;5.70
8565;DHT22;4320;51.498;6.556;2022-08-03T05:05:49;21.90;5.80
8565;DHT22;4320;51.498;6.556;2022-08-03T05:08:15;21.90;5.70
8565;DHT22;4320;51.498;6.556;2022-08-03T05:10:40;21.90;5.80
8565;DHT22;4320;51.498;6.556;2022-08-03T05:13:06;21.90;5.80
8565;DHT22;4320;51.498;6.556;2022-08-03T05:15:36;22.00;5.80
8565;DHT22;4320;51.498;6.556;2022-08-03T05:18:02;22.00;5.80
8565;DHT22;4320;51.498;6.556;2022-08-03T05:20:27;22.10;6.20
8565;DHT22;4320;51.498;6.556;2022-08-03T05:22:53;22.10;5.90
8565;DHT22;4320;51.498;6.556;2022-08-03T05:25:19;22.20;5.10
8565;DHT22;4320;51.498;6.556;2022-08-03T05:27:44;22.20;2.80
8565;DHT22;4320;51.498;6.556;2022-08-03T05:30:10;22.30;1.40
8565;DHT22;4320;51.498;6.556;2022-08-03T05:32:36;22.30;1.00
8565;DHT22;4320;51.498;6.556;2022-08-03T05:35:02;22.40;1.00
8565;DHT22;4320;51.498;6.556;2022-08-03T05:37:28;22.40;1.00
8565;DHT22;4320;51.498;6.556;2022-08-03T05:39:53;22.50;1.00
8565;DHT22;4320;51.498;6.556;2022-08-03T05:42:19;22.50;1.00
8565;DHT22;4320;51.498;6.556;2022-08-03T05:44:44;22.40;1.00
8565;DHT22;4320;51.498;6.556;2022-08-03T05:47:10;22.40;1.00
8565;DHT22;4320;51.498;6.556;2022-08-03T05:49:36;22.50;1.00
8565;DHT22;4320;51.498;6.556;2022-08-03T05:52:02;22.60;1.00
8565;DHT22;4320;51.498;6.556;2022-08-03T05:54:28;22.60;1.00
8565;DHT22;4320;51.498;6.556;2022-08-03T05:56:53;22.70;1.00
8565;DHT22;4320;51.498;6.556;2022-08-03T05:59:19;22.80;1.00
8565;DHT22;4320;51.498;6.556;2022-08-03T06:01:46;22.80;1.00
8565;DHT22;4320;51.498;6.556;2022-08-03T06:04:12;22.80;1.00
8565;DHT22;4320;51.498;6.556;2022-08-03T06:06:37;22.90;1.00
8565;DHT22;4320;51.498;6.556;2022-08-03T06:09:03;23.00;1.00
8565;DHT22;4320;51.498;6.556;2022-08-03T06:11:29;23.10;1.00
8565;DHT22;4320;51.498;6.556;2022-08-03T06:13:54;23.20;1.00
8565;DHT22;4320;51.498;6.556;2022-08-03T06:16:20;23.50;1.00
8565;DHT22;4320;51.498;6.556;2022-08-03T06:18:45;23.70;1.00
8565;DHT22;4320;51.498;6.556;2022-08-03T06:21:11;23.70;1.00
8565;DHT22;4320;51.498;6.556;2022-08-03T06:23:37;23.70;1.00
8565;DHT22;4320;51.498;6.556;2022-08-03T06:26:02;23.70;1.00
8565;DHT22;4320;51.498;6.556;2022-08-03T06:28:28;23.80;1.00
8565;DHT22;4320;51.498;6.556;2022-08-03T06:30:55;23.90;1.00
8565;DHT22;4320;51.498;6.556;2022-08-03T06:33:21;23.90;1.00
8565;DHT22;4320;51.498;6.556;2022-08-03T06:35:46;23.90;1.00
8565;DHT22;4320;51.498;6.556;2022-08-03T06:38:12;24.00;1.00
8565;DHT22;4320;51.498;6.556;2022-08-03T06:40:37;24.10;1.00
8565;DHT22;4320;51.498;6.556;2022-08-03T06:43:05;24.10;1.00
8565;DHT22;4320;51.498;6.556;2022-08-03T06:45:32;24.20;1.00
8565;DHT22;4320;51.498;6.556;2022-08-03T06:48:03;24.20;1.00
8565;DHT22;4320;51.498;6.556;2022-08-03T06:50:29;24.30;1.00
8565;DHT22;4320;51.498;6.556;2022-08-03T06:52:55;24.30;1.00
8565;DHT22;4320;51.498;6.556;2022-08-03T06:55:21;24.40;1.00
8565;DHT22;4320;51.498;6.556;2022-08-03T06:57:47;24.40;1.00
8565;DHT22;4320;51.498;6.556;2022-08-03T07:00:13;24.40;1.00
8565;DHT22;4320;51.498;6.556;2022-08-03T07:02:39;24.50;1.00
8565;DHT22;4320;51.498;6.556;2022-08-03T07:05:06;24.40;1.00
8565;DHT22;4320;51.498;6.556;2022-08-03T07:07:32;24.50;1.00
8565;DHT22;4320;51.498;6.556;2022-08-03T07:09:57;24.50;1.00
8565;DHT22;4320;51.498;6.556;2022-08-03T07:12:24;24.50;1.00
8565;DHT22;4320;51.498;6.556;2022-08-03T07:14:50;24.60;1.00
8565;DHT22;4320;51.498;6.556;2022-08-03T07:17:16;24.60;1.00
8565;DHT22;4320;51.498;6.556;2022-08-03T07:19:41;24.70;1.00
8565;DHT22;4320;51.498;6.556;2022-08-03T07:22:08;24.80;1.00
8565;DHT22;4320;51.498;6.556;2022-08-03T07:24:33;24.80;1.00
8565;DHT22;4320;51.498;6.556;2022-08-03T07:26:59;24.90;1.00
8565;DHT22;4320;51.498;6.556;2022-08-03T07:29:25;25.00;1.00
8565;DHT22;4320;51.498;6.556;2022-08-03T07:31:51;25.00;1.00
8565;DHT22;4320;51.498;6.556;2022-08-03T07:34:16;25.00;1.00
8565;DHT22;4320;51.498;6.556;2022-08-03T07:36:42;25.10;1.00
8565;DHT22;4320;51.498;6.556;2022-08-03T07:39:08;25.10;1.00
8565;DHT22;4320;51.498;6.556;2022-08-03T07:41:33;25.20;1.00
8565;DHT22;4320;51.498;6.556;2022-08-03T07:43:59;25.20;1.00
8565;DHT22;4320;51.498;6.556;2022-08-03T07:46:25;25.30;1.00
8565;DHT22;4320;51.498;6.556;2022-08-03T07:48:50;25.60;1.00
8565;DHT22;4320;51.498;6.556;2022-08-03T07:51:17;25.80;1.00
8565;DHT22;4320;51.498;6.556;2022-08-03T07:53:43;26.00;1.00
8565;DHT22;4320;51.498;6.556;2022-08-03T07:56:08;26.00;1.00
8565;DHT22;4320;51.498;6.556;2022-08-03T07:58:35;25.90;1.00
8565;DHT22;4320;51.498;6.556;2022-08-03T08:01:01;25.80;1.00
8565;DHT22;4320;51.498;6.556;2022-08-03T08:03:26;25.80;1.00
8565;DHT22;4320;51.498;6.556;2022-08-03T08:05:52;25.80;1.00
8565;DHT22;4320;51.498;6.556;2022-08-03T08:08:18;25.80;1.00
8565;DHT22;4320;51.498;6.556;2022-08-03T08:10:45;25.80;1.00
8565;DHT22;4320;51.498;6.556;2022-08-03T08:13:11;25.90;1.00
8565;DHT22;4320;51.498;6.556;2022-08-03T08:15:36;25.80;1.00
8565;DHT22;4320;51.498;6.556;2022-08-03T08:18:02;25.90;1.00
8565;DHT22;4320;51.498;6.556;2022-08-03T08:20:33;26.00;1.00
8565;DHT22;4320;51.498;6.556;2022-08-03T08:23:01;25.90;1.00
8565;DHT22;4320;51.498;6.556;2022-08-03T08:25:28;26.10;1.00
8565;DHT22;4320;51.498;6.556;2022-08-03T08:27:54;26.10;1.00
8565;DHT22;4320;51.498;6.556;2022-08-03T08:30:22;26.20;1.00
8565;DHT22;4320;51.498;6.556;2022-08-03T08:32:49;26.30;1.00
8565;DHT22;4320;51.498;6.556;2022-08-03T08:35:16;26.20;1.00
8565;DHT22;4320;51.498;6.556;2022-08-03T08:37:42;26.10;1.00
8565;DHT22;4320;51.498;6.556;2022-08-03T08:40:08;26.10;1.00
8565;DHT22;4320;51.498;6.556;2022-08-03T08:42:36;26.10;1.00
8565;DHT22;4320;51.498;6.556;2022-08-03T08:45:03;26.10;1.00
8565;DHT22;4320;51.498;6.556;2022-08-03T08:47:31;26.10;1.00
8565;DHT22;4320;51.498;6.556;2022-08-03T08:49:58;26.30;1.00
8565;DHT22;4320;51.498;6.556;2022-08-03T08:52:26;26.60;1.00
8565;DHT22;4320;51.498;6.556;2022-08-03T08:54:57;26.90;1.00
8565;DHT22;4320;51.498;6.556;2022-08-03T08:57:27;26.90;1.00
8565;DHT22;4320;51.498;6.556;2022-08-03T08:59:54;26.90;1.00
8565;DHT22;4320;51.498;6.556;2022-08-03T09:02:22;26.90;1.00
8565;DHT22;4320;51.498;6.556;2022-08-03T09:04:48;26.80;1.00
8565;DHT22;4320;51.498;6.556;2022-08-03T09:07:14;26.70;1.00
8565;DHT22;4320;51.498;6.556;2022-08-03T09:09:40;26.70;1.00
8565;DHT22;4320;51.498;6.556;2022-08-03T09:12:07;26.70;1.00
8565;DHT22;4320;51.498;6.556;2022-08-03T09:14:33;26.60;1.00
8565;DHT22;4320;51.498;6.556;2022-08-03T09:17:00;26.70;1.00
8565;DHT22;4320;51.498;6.556;2022-08-03T09:19:31;26.80;1.00
8565;DHT22;4320;51.498;6.556;2022-08-03T09:22:12;26.90;1.00
8565;DHT22;4320;51.498;6.556;2022-08-03T09:24:53;27.00;1.00
8565;DHT22;4320;51.498;6.556;2022-08-03T09:27:20;27.00;1.00
8565;DHT22;4320;51.498;6.556;2022-08-03T09:29:50;27.10;1.00
8565;DHT22;4320;51.498;6.556;2022-08-03T09:32:19;27.10;1.00
8565;DHT22;4320;51.498;6.556;2022-08-03T09:34:46;27.20;1.00
8565;DHT22;4320;51.498;6.556;2022-08-03T09:37:13;27.20;1.00
8565;DHT22;4320;51.498;6.556;2022-08-03T09:39:40;27.20;1.00
8565;DHT22;4320;51.498;6.556;2022-08-03T09:42:08;27.20;1.00
8565;DHT22;4320;51.498;6.556;2022-08-03T09:44:35;27.30;1.00
8565;DHT22;4320;51.498;6.556;2022-08-03T09:47:02;27.40;1.00
8565;DHT22;4320;51.498;6.556;2022-08-03T09:49:28;27.50;1.00
8565;DHT22;4320;51.498;6.556;2022-08-03T09:51:55;27.50;1.00
8565;DHT22;4320;51.498;6.556;2022-08-03T09:54:30;27.50;1.00
8565;DHT22;4320;51.498;6.556;2022-08-03T09:56:57;27.50;1.00
8565;DHT22;4320;51.498;6.556;2022-08-03T09:59:24;27.50;1.00
8565;DHT22;4320;51.498;6.556;2022-08-03T10:01:51;27.60;1.00
8565;DHT22;4320;51.498;6.556;2022-08-03T10:04:17;27.60;1.00
8565;DHT22;4320;51.498;6.556;2022-08-03T10:06:44;27.60;1.00
8565;DHT22;4320;51.498;6.556;2022-08-03T10:09:15;27.60;1.00
8565;DHT22;4320;51.498;6.556;2022-08-03T10:11:42;27.70;1.00
8565;DHT22;4320;51.498;6.556;2022-08-03T10:14:11;27.80;1.00
8565;DHT22;4320;51.498;6.556;2022-08-03T10:16:44;27.90;1.00
8565;DHT22;4320;51.498;6.556;2022-08-03T10:19:11;27.90;1.00
8565;DHT22;4320;51.498;6.556;2022-08-03T10:21:40;27.80;1.00
8565;DHT22;4320;51.498;6.556;2022-08-03T10:24:08;27.90;1.00
8565;DHT22;4320;51.498;6.556;2022-08-03T10:26:38;27.90;1.00
8565;DHT22;4320;51.498;6.556;2022-08-03T10:29:06;27.90;1.00
8565;DHT22;4320;51.498;6.556;2022-08-03T10:31:40;28.00;1.00
8565;DHT22;4320;51.498;6.556;2022-08-03T10:34:14;28.10;1.00
8565;DHT22;4320;51.498;6.556;2022-08-03T10:36:42;28.20;1.00
8565;DHT22;4320;51.498;6.556;2022-08-03T10:39:09;28.20;1.00
8565;DHT22;4320;51.498;6.556;2022-08-03T10:41:39;28.20;1.00
8565;DHT22;4320;51.498;6.556;2022-08-03T10:44:09;28.10;1.00
8565;DHT22;4320;51.498;6.556;2022-08-03T10:46:35;28.10;1.00
8565;DHT22;4320;51.498;6.556;2022-08-03T10:49:04;28.20;1.00
8565;DHT22;4320;51.498;6.556;2022-08-03T10:51:30;28.30;1.00
8565;DHT22;4320;51.498;6.556;2022-08-03T10:53:58;28.40;1.00
8565;DHT22;4320;51.498;6.556;2022-08-03T10:59:17;28.60;1.00
8565;DHT22;4320;51.498;6.556;2022-08-03T11:01:53;28.60;1.00
8565;DHT22;4320;51.498;6.556;2022-08-03T11:04:20;28.60;1.00
8565;DHT22;4320;51.498;6.556;2022-08-03T11:06:46;28.60;1.00
8565;DHT22;4320;51.498;6.556;2022-08-03T11:09:14;28.60;1.00
8565;DHT22;4320;51.498;6.556;2022-08-03T11:11:41;28.60;1.00
8565;DHT22;4320;51.498;6.556;2022-08-03T11:14:18;28.60;1.00
8565;DHT22;4320;51.498;6.556;2022-08-03T11:16:47;28.70;1.00
8565;DHT22;4320;51.498;6.556;2022-08-03T11:19:19;28.70;1.00
8565;DHT22;4320;51.498;6.556;2022-08-03T11:46:09;29.60;1.00
8565;DHT22;4320;51.498;6.556;2022-08-03T11:48:44;29.60;1.00
8565;DHT22;4320;51.498;6.556;2022-08-03T11:51:26;29.70;1.00
8565;DHT22;4320;51.498;6.556;2022-08-03T11:54:04;29.80;1.00
8565;DHT22;4320;51.498;6.556;2022-08-03T11:56:48;29.80;1.00
8565;DHT22;4320;51.498;6.556;2022-08-03T11:59:14;29.90;1.00
8565;DHT22;4320;51.498;6.556;2022-08-03T12:01:42;30.00;1.00
8565;DHT22;4320;51.498;6.556;2022-08-03T12:04:07;30.00;1.00
8565;DHT22;4320;51.498;6.556;2022-08-03T12:06:34;30.10;1.00
8565;DHT22;4320;51.498;6.556;2022-08-03T12:09:19;30.20;1.00
8565;DHT22;4320;51.498;6.556;2022-08-03T12:11:49;30.30;1.00
8565;DHT22;4320;51.498;6.556;2022-08-03T12:14:19;30.40;1.00
8565;DHT22;4320;51.498;6.556;2022-08-03T12:16:48;30.60;1.00
8565;DHT22;4320;51.498;6.556;2022-08-03T12:19:14;30.80;1.00
8565;DHT22;4320;51.498;6.556;2022-08-03T12:21:46;31.10;1.00
8565;DHT22;4320;51.498;6.556;2022-08-03T12:24:13;31.30;1.00
8565;DHT22;4320;51.498;6.556;2022-08-03T12:26:49;31.50;1.00
8565;DHT22;4320;51.498;6.556;2022-08-03T12:29:16;31.90;1.00
8565;DHT22;4320;51.498;6.556;2022-08-03T12:31:42;32.30;1.00
8565;DHT22;4320;51.498;6.556;2022-08-03T12:34:08;32.50;1.00
8565;DHT22;4320;51.498;6.556;2022-08-03T12:36:34;32.70;1.00
8565;DHT22;4320;51.498;6.556;2022-08-03T12:39:05;32.90;1.00
8565;DHT22;4320;51.498;6.556;2022-08-03T12:41:34;33.00;1.00
8565;DHT22;4320;51.498;6.556;2022-08-03T12:44:03;33.20;1.00
8565;DHT22;4320;51.498;6.556;2022-08-03T12:46:34;33.30;1.00
8565;DHT22;4320;51.498;6.556;2022-08-03T12:54:08;33.50;1.00
8565;DHT22;4320;51.498;6.556;2022-08-03T12:56:34;33.70;1.00
8565;DHT22;4320;51.498;6.556;2022-08-03T12:59:22;33.80;1.00
8565;DHT22;4320;51.498;6.556;2022-08-03T13:01:46;33.80;1.00
8565;DHT22;4320;51.498;6.556;2022-08-03T13:04:12;33.70;1.00
8565;DHT22;4320;51.498;6.556;2022-08-03T13:07:06;33.70;1.00
8565;DHT22;4320;51.498;6.556;2022-08-03T13:09:52;33.70;1.00
8565;DHT22;4320;51.498;6.556;2022-08-03T13:12:23;33.60;1.00
8565;DHT22;4320;51.498;6.556;2022-08-03T13:14:57;33.30;1.00
8565;DHT22;4320;51.498;6.556;2022-08-03T13:17:24;33.30;1.00
8565;DHT22;4320;51.498;6.556;2022-08-03T13:19:50;33.30;1.00
8565;DHT22;4320;51.498;6.556;2022-08-03T13:22:17;33.20;1.00
8565;DHT22;4320;51.498;6.556;2022-08-03T13:24:44;33.10;1.00
8565;DHT22;4320;51.498;6.556;2022-08-03T13:27:11;33.10;1.00
8565;DHT22;4320;51.498;6.556;2022-08-03T13:29:38;33.10;1.00
8565;DHT22;4320;51.498;6.556;2022-08-03T13:32:04;33.00;1.00
8565;DHT22;4320;51.498;6.556;2022-08-03T13:34:31;33.10;1.00
8565;DHT22;4320;51.498;6.556;2022-08-03T13:36:56;33.30;1.00
8565;DHT22;4320;51.498;6.556;2022-08-03T13:39:22;33.40;1.00
8565;DHT22;4320;51.498;6.556;2022-08-03T13:41:48;33.10;1.00
8565;DHT22;4320;51.498;6.556;2022-08-03T13:44:14;33.10;1.00
8565;DHT22;4320;51.498;6.556;2022-08-03T13:46:40;33.00;1.00
8565;DHT22;4320;51.498;6.556;2022-08-03T13:49:07;32.80;1.00
8565;DHT22;4320;51.498;6.556;2022-08-03T13:51:33;32.70;1.00
8565;DHT22;4320;51.498;6.556;2022-08-03T13:53:58;32.60;1.00
8565;DHT22;4320;51.498;6.556;2022-08-03T13:56:28;32.40;1.00
8565;DHT22;4320;51.498;6.556;2022-08-03T13:58:54;32.40;1.00
8565;DHT22;4320;51.498;6.556;2022-08-03T14:01:20;32.30;1.00
8565;DHT22;4320;51.498;6.556;2022-08-03T14:03:46;32.30;1.00
8565;DHT22;4320;51.498;6.556;2022-08-03T14:06:21;32.30;1.00
8565;DHT22;4320;51.498;6.556;2022-08-03T14:08:48;32.30;1.00
8565;DHT22;4320;51.498;6.556;2022-08-03T14:11:14;32.30;1.00
8565;DHT22;4320;51.498;6.556;2022-08-03T14:13:40;32.40;1.00
8565;DHT22;4320;51.498;6.556;2022-08-03T14:16:06;32.20;1.00
8565;DHT22;4320;51.498;6.556;2022-08-03T14:18:32;32.30;1.00
8565;DHT22;4320;51.498;6.556;2022-08-03T14:20:58;32.30;1.00
8565;DHT22;4320;51.498;6.556;2022-08-03T14:23:24;32.20;1.00
8565;DHT22;4320;51.498;6.556;2022-08-03T14:25:50;32.20;1.00
8565;DHT22;4320;51.498;6.556;2022-08-03T14:28:16;32.00;1.00
8565;DHT22;4320;51.498;6.556;2022-08-03T14:30:42;32.10;1.00
8565;DHT22;4320;51.498;6.556;2022-08-03T14:33:08;32.00;1.00
8565;DHT22;4320;51.498;6.556;2022-08-03T14:35:34;32.10;1.00
8565;DHT22;4320;51.498;6.556;2022-08-03T14:37:59;32.10;1.00
8565;DHT22;4320;51.498;6.556;2022-08-03T14:40:25;32.30;1.00
8565;DHT22;4320;51.498;6.556;2022-08-03T14:42:51;32.20;1.00
8565;DHT22;4320;51.498;6.556;2022-08-03T14:45:17;32.20;1.00
8565;DHT22;4320;51.498;6.556;2022-08-03T14:47:43;32.10;1.00
8565;DHT22;4320;51.498;6.556;2022-08-03T14:50:09;32.10;1.00
8565;DHT22;4320;51.498;6.556;2022-08-03T14:52:34;32.10;1.00
8565;DHT22;4320;51.498;6.556;2022-08-03T14:55:00;32.10;1.00
8565;DHT22;4320;51.498;6.556;2022-08-03T14:57:26;32.10;1.00
8565;DHT22;4320;51.498;6.556;2022-08-03T14:59:52;32.00;1.00
8565;DHT22;4320;51.498;6.556;2022-08-03T15:02:18;32.00;1.00
8565;DHT22;4320;51.498;6.556;2022-08-03T15:04:45;32.00;1.00
8565;DHT22;4320;51.498;6.556;2022-08-03T15:07:10;32.00;1.00
8565;DHT22;4320;51.498;6.556;2022-08-03T15:09:36;31.90;1.00
8565;DHT22;4320;51.498;6.556;2022-08-03T15:12:04;32.00;1.00
8565;DHT22;4320;51.498;6.556;2022-08-03T15:14:30;32.10;1.00
8565;DHT22;4320;51.498;6.556;2022-08-03T15:16:56;32.00;1.00
8565;DHT22;4320;51.498;6.556;2022-08-03T15:19:22;31.90;1.00
8565;DHT22;4320;51.498;6.556;2022-08-03T15:21:47;32.00;1.00
8565;DHT22;4320;51.498;6.556;2022-08-03T15:24:13;32.00;1.00
8565;DHT22;4320;51.498;6.556;2022-08-03T15:26:39;31.80;1.00
8565;DHT22;4320;51.498;6.556;2022-08-03T15:29:04;31.60;1.00
8565;DHT22;4320;51.498;6.556;2022-08-03T15:31:30;31.50;1.00
8565;DHT22;4320;51.498;6.556;2022-08-03T15:33:56;31.50;1.00
8565;DHT22;4320;51.498;6.556;2022-08-03T15:36:21;31.40;1.00
8565;DHT22;4320;51.498;6.556;2022-08-03T15:38:47;31.50;1.00
8565;DHT22;4320;51.498;6.556;2022-08-03T15:41:13;31.60;1.00
8565;DHT22;4320;51.498;6.556;2022-08-03T15:43:39;31.70;1.00
8565;DHT22;4320;51.498;6.556;2022-08-03T15:46:05;31.70;1.00
8565;DHT22;4320;51.498;6.556;2022-08-03T15:48:31;31.70;1.00
8565;DHT22;4320;51.498;6.556;2022-08-03T15:50:57;31.80;1.00
8565;DHT22;4320;51.498;6.556;2022-08-03T15:53:23;31.80;1.00
8565;DHT22;4320;51.498;6.556;2022-08-03T15:55:48;31.90;1.00
8565;DHT22;4320;51.498;6.556;2022-08-03T15:58:14;31.80;1.00
8565;DHT22;4320;51.498;6.556;2022-08-03T16:00:40;31.80;1.00
8565;DHT22;4320;51.498;6.556;2022-08-03T16:03:06;31.90;1.00
8565;DHT22;4320;51.498;6.556;2022-08-03T16:05:32;31.80;1.00
8565;DHT22;4320;51.498;6.556;2022-08-03T16:07:58;31.80;1.00
8565;DHT22;4320;51.498;6.556;2022-08-03T16:10:24;31.80;1.00
8565;DHT22;4320;51.498;6.556;2022-08-03T16:12:53;31.70;1.00
8565;DHT22;4320;51.498;6.556;2022-08-03T16:15:18;31.70;1.00
8565;DHT22;4320;51.498;6.556;2022-08-03T16:17:44;31.70;1.00
8565;DHT22;4320;51.498;6.556;2022-08-03T16:20:10;31.60;1.00
8565;DHT22;4320;51.498;6.556;2022-08-03T16:22:44;31.50;1.00
8565;DHT22;4320;51.498;6.556;2022-08-03T16:25:11;31.50;1.00
8565;DHT22;4320;51.498;6.556;2022-08-03T16:27:37;31.60;1.00
8565;DHT22;4320;51.498;6.556;2022-08-03T16:30:07;31.60;1.00
8565;DHT22;4320;51.498;6.556;2022-08-03T16:32:33;31.60;1.00
8565;DHT22;4320;51.498;6.556;2022-08-03T16:35:00;31.60;1.00
8565;DHT22;4320;51.498;6.556;2022-08-03T16:37:26;31.40;1.00
8565;DHT22;4320;51.498;6.556;2022-08-03T16:39:52;31.40;1.00
8565;DHT22;4320;51.498;6.556;2022-08-03T16:42:17;31.40;1.00
8565;DHT22;4320;51.498;6.556;2022-08-03T16:44:43;31.50;1.00
8565;DHT22;4320;51.498;6.556;2022-08-03T16:47:09;31.60;1.00
8565;DHT22;4320;51.498;6.556;2022-08-03T16:49:34;31.60;1.00
8565;DHT22;4320;51.498;6.556;2022-08-03T16:52:00;31.50;1.00
8565;DHT22;4320;51.498;6.556;2022-08-03T16:54:26;31.60;1.00
8565;DHT22;4320;51.498;6.556;2022-08-03T16:56:52;31.60;1.00
8565;DHT22;4320;51.498;6.556;2022-08-03T16:59:17;31.60;1.00
8565;DHT22;4320;51.498;6.556;2022-08-03T17:01:45;31.60;1.00
8565;DHT22;4320;51.498;6.556;2022-08-03T17:04:12;31.60;1.00
8565;DHT22;4320;51.498;6.556;2022-08-03T17:06:38;31.60;1.00
8565;DHT22;4320;51.498;6.556;2022-08-03T17:09:07;31.60;1.00